sensor_id;sensor_type;location;lat;lon;timestamp;temperature;humidity
27492;DHT22;14927;51.210;6.838;2023-02-15T00:01:06;10.90;53.70
27492;DHT22;14927;51.210;6.838;2023-02-15T00:03:53;10.70;53.60
27492;DHT22;14927;51.210;6.838;2023-02-15T00:06:38;10.60;53.70
27492;DHT22;14927;51.210;6.838;2023-02-15T00:09:23;10.70;53.70
27492;DHT22;14927;51.210;6.838;2023-02-15T00:12:09;10.80;53.90
27492;DHT22;14927;51.210;6.838;2023-02-15T00:14:54;10.60;53.70
27492;DHT22;14927;51.210;6.838;2023-02-15T00:17:39;10.50;53.70
27492;DHT22;14927;51.210;6.838;2023-02-15T00:20:23;10.50;53.80
27492;DHT22;14927;51.210;6.838;2023-02-15T00:23:08;10.50;53.80
27492;DHT22;14927;51.210;6.838;2023-02-15T00:26:06;10.50;53.90
27492;DHT22;14927;51.210;6.838;2023-02-15T00:28:52;10.50;54.10
27492;DHT22;14927;51.210;6.838;2023-02-15T00:31:38;10.40;53.90
27492;DHT22;14927;51.210;6.838;2023-02-15T00:34:24;10.40;54.00
27492;DHT22;14927;51.210;6.838;2023-02-15T00:37:09;10.40;54.00
27492;DHT22;14927;51.210;6.838;2023-02-15T00:39:54;10.40;54.10
27492;DHT22;14927;51.210;6.838;2023-02-15T00:42:39;10.30;54.00
27492;DHT22;14927;51.210;6.838;2023-02-15T00:45:23;10.30;54.10
27492;DHT22;14927;51.210;6.838;2023-02-15T00:48:08;10.30;54.10
27492;DHT22;14927;51.210;6.838;2023-02-15T00:50:55;10.20;54.10
27492;DHT22;14927;51.210;6.838;2023-02-15T01:04:24;10.00;54.30
27492;DHT22;14927;51.210;6.838;2023-02-15T01:07:09;9.90;54.40
27492;DHT22;14927;51.210;6.838;2023-02-15T01:09:54;10.00;54.50
27492;DHT22;14927;51.210;6.838;2023-02-15T01:12:39;10.00;54.60
27492;DHT22;14927;51.210;6.838;2023-02-15T01:15:24;9.90;54.70
27492;DHT22;14927;51.210;6.838;2023-02-15T01:18:09;9.90;54.70
27492;DHT22;14927;51.210;6.838;2023-02-15T01:20:54;9.90;54.80
27492;DHT22;14927;51.210;6.838;2023-02-15T01:23:40;9.80;54.80
27492;DHT22;14927;51.210;6.838;2023-02-15T01:26:26;9.80;54.90
27492;DHT22;14927;51.210;6.838;2023-02-15T01:29:10;9.70;54.90
27492;DHT22;14927;51.210;6.838;2023-02-15T01:31:55;9.70;54.90
27492;DHT22;14927;51.210;6.838;2023-02-15T01:34:40;9.70;55.00
27492;DHT22;14927;51.210;6.838;2023-02-15T01:37:24;9.60;55.10
27492;DHT22;14927;51.210;6.838;2023-02-15T01:40:15;9.60;55.30
27492;DHT22;14927;51.210;6.838;2023-02-15T01:43:02;9.50;55.50
27492;DHT22;14927;51.210;6.838;2023-02-15T01:45:48;9.60;55.40
27492;DHT22;14927;51.210;6.838;2023-02-15T01:48:33;9.50;55.40
27492;DHT22;14927;51.210;6.838;2023-02-15T01:51:20;9.50;55.50
27492;DHT22;14927;51.210;6.838;2023-02-15T01:54:31;9.60;55.60
27492;DHT22;14927;51.210;6.838;2023-02-15T01:57:21;9.50;55.80
27492;DHT22;14927;51.210;6.838;2023-02-15T02:00:08;9.50;55.70
27492;DHT22;14927;51.210;6.838;2023-02-15T02:02:56;9.50;55.70
27492;DHT22;14927;51.210;6.838;2023-02-15T02:05:42;9.40;55.80
27492;DHT22;14927;51.210;6.838;2023-02-15T02:08:27;9.40;55.80
27492;DHT22;14927;51.210;6.838;2023-02-15T02:11:13;9.40;55.90
27492;DHT22;14927;51.210;6.838;2023-02-15T02:13:59;9.40;55.90
27492;DHT22;14927;51.210;6.838;2023-02-15T02:17:10;9.40;55.90
27492;DHT22;14927;51.210;6.838;2023-02-15T02:20:17;9.30;56.10
27492;DHT22;14927;51.210;6.838;2023-02-15T02:30:03;9.30;56.10
27492;DHT22;14927;51.210;6.838;2023-02-15T02:45:22;9.10;56.10
27492;DHT22;14927;51.210;6.838;2023-02-15T02:48:15;9.00;56.00
27492;DHT22;14927;51.210;6.838;2023-02-15T02:51:04;9.00;56.20
27492;DHT22;14927;51.210;6.838;2023-02-15T02:53:53;9.00;56.20
27492;DHT22;14927;51.210;6.838;2023-02-15T02:56:43;9.00;56.30
27492;DHT22;14927;51.210;6.838;2023-02-15T02:59:34;8.90;56.30
27492;DHT22;14927;51.210;6.838;2023-02-15T03:02:28;8.90;56.30
27492;DHT22;14927;51.210;6.838;2023-02-15T03:05:19;8.90;56.40
27492;DHT22;14927;51.210;6.838;2023-02-15T03:08:07;8.80;56.30
27492;DHT22;14927;51.210;6.838;2023-02-15T03:10:56;8.80;56.40
27492;DHT22;14927;51.210;6.838;2023-02-15T03:13:44;8.90;56.50
27492;DHT22;14927;51.210;6.838;2023-02-15T03:16:29;8.80;56.50
27492;DHT22;14927;51.210;6.838;2023-02-15T03:19:17;8.70;56.50
27492;DHT22;14927;51.210;6.838;2023-02-15T03:22:14;8.70;56.70
27492;DHT22;14927;51.210;6.838;2023-02-15T03:28:11;8.60;56.90
27492;DHT22;14927;51.210;6.838;2023-02-15T03:31:00;8.60;56.90
27492;DHT22;14927;51.210;6.838;2023-02-15T03:34:00;8.60;56.90
27492;DHT22;14927;51.210;6.838;2023-02-15T03:37:04;8.50;57.20
27492;DHT22;14927;51.210;6.838;2023-02-15T03:44:00;8.50;57.40
27492;DHT22;14927;51.210;6.838;2023-02-15T03:47:13;8.50;57.30
27492;DHT22;14927;51.210;6.838;2023-02-15T03:50:07;8.50;57.50
27492;DHT22;14927;51.210;6.838;2023-02-15T03:53:17;8.50;57.30
27492;DHT22;14927;51.210;6.838;2023-02-15T03:56:04;8.40;57.30
27492;DHT22;14927;51.210;6.838;2023-02-15T03:58:49;8.40;57.40
27492;DHT22;14927;51.210;6.838;2023-02-15T04:02:21;8.40;57.40
27492;DHT22;14927;51.210;6.838;2023-02-15T04:05:08;8.40;57.70
27492;DHT22;14927;51.210;6.838;2023-02-15T04:07:53;8.40;57.50
27492;DHT22;14927;51.210;6.838;2023-02-15T04:10:38;8.40;57.60
27492;DHT22;14927;51.210;6.838;2023-02-15T04:13:39;8.40;57.60
27492;DHT22;14927;51.210;6.838;2023-02-15T04:16:24;8.40;57.50
27492;DHT22;14927;51.210;6.838;2023-02-15T04:19:09;8.60;57.70
27492;DHT22;14927;51.210;6.838;2023-02-15T04:22:12;8.30;57.60
27492;DHT22;14927;51.210;6.838;2023-02-15T04:25:16;8.30;57.50
27492;DHT22;14927;51.210;6.838;2023-02-15T04:28:00;8.30;57.60
27492;DHT22;14927;51.210;6.838;2023-02-15T04:30:46;8.30;57.70
27492;DHT22;14927;51.210;6.838;2023-02-15T04:33:32;8.20;57.80
27492;DHT22;14927;51.210;6.838;2023-02-15T04:36:16;8.20;57.80
27492;DHT22;14927;51.210;6.838;2023-02-15T04:39:01;8.20;57.80
27492;DHT22;14927;51.210;6.838;2023-02-15T04:41:46;8.20;57.90
27492;DHT22;14927;51.210;6.838;2023-02-15T04:44:32;8.20;58.00
27492;DHT22;14927;51.210;6.838;2023-02-15T04:47:16;8.20;58.00
27492;DHT22;14927;51.210;6.838;2023-02-15T04:50:01;8.40;58.10
27492;DHT22;14927;51.210;6.838;2023-02-15T04:52:46;8.20;58.10
27492;DHT22;14927;51.210;6.838;2023-02-15T04:55:31;8.10;58.10
27492;DHT22;14927;51.210;6.838;2023-02-15T04:58:15;8.10;58.10
27492;DHT22;14927;51.210;6.838;2023-02-15T05:01:01;8.10;58.10
27492;DHT22;14927;51.210;6.838;2023-02-15T05:03:45;8.10;58.10
27492;DHT22;14927;51.210;6.838;2023-02-15T05:06:30;8.10;58.10
27492;DHT22;14927;51.210;6.838;2023-02-15T05:09:15;8.10;58.00
27492;DHT22;14927;51.210;6.838;2023-02-15T05:11:59;8.10;58.00
27492;DHT22;14927;51.210;6.838;2023-02-15T05:14:44;8.00;58.00
27492;DHT22;14927;51.210;6.838;2023-02-15T05:17:29;8.00;58.00
27492;DHT22;14927;51.210;6.838;2023-02-15T05:20:13;8.00;58.00
27492;DHT22;14927;51.210;6.838;2023-02-15T05:22:58;8.00;58.00
27492;DHT22;14927;51.210;6.838;2023-02-15T05:25:49;8.10;58.10
27492;DHT22;14927;51.210;6.838;2023-02-15T05:28:53;7.90;58.20
27492;DHT22;14927;51.210;6.838;2023-02-15T05:31:38;7.90;58.10
27492;DHT22;14927;51.210;6.838;2023-02-15T05:34:23;7.90;58.20
27492;DHT22;14927;51.210;6.838;2023-02-15T05:37:08;7.90;58.20
27492;DHT22;14927;51.210;6.838;2023-02-15T05:39:52;7.90;58.30
27492;DHT22;14927;51.210;6.838;2023-02-15T05:42:37;7.80;58.30
27492;DHT22;14927;51.210;6.838;2023-02-15T05:45:21;7.80;58.30
27492;DHT22;14927;51.210;6.838;2023-02-15T05:48:06;7.70;58.30
27492;DHT22;14927;51.210;6.838;2023-02-15T05:51:17;7.80;58.40
27492;DHT22;14927;51.210;6.838;2023-02-15T05:54:02;7.70;58.70
27492;DHT22;14927;51.210;6.838;2023-02-15T05:56:47;7.70;58.40
27492;DHT22;14927;51.210;6.838;2023-02-15T05:59:31;7.70;58.50
27492;DHT22;14927;51.210;6.838;2023-02-15T06:02:16;7.70;58.50
27492;DHT22;14927;51.210;6.838;2023-02-15T06:05:01;7.90;58.60
27492;DHT22;14927;51.210;6.838;2023-02-15T06:07:46;7.70;58.50
27492;DHT22;14927;51.210;6.838;2023-02-15T06:10:31;7.70;58.60
27492;DHT22;14927;51.210;6.838;2023-02-15T06:13:15;7.70;58.60
27492;DHT22;14927;51.210;6.838;2023-02-15T06:16:00;7.60;58.60
27492;DHT22;14927;51.210;6.838;2023-02-15T06:18:45;7.60;58.60
27492;DHT22;14927;51.210;6.838;2023-02-15T06:21:30;7.60;58.70
27492;DHT22;14927;51.210;6.838;2023-02-15T06:24:15;7.60;58.90
27492;DHT22;14927;51.210;6.838;2023-02-15T06:27:00;7.60;59.00
27492;DHT22;14927;51.210;6.838;2023-02-15T06:29:45;7.60;59.70
27492;DHT22;14927;51.210;6.838;2023-02-15T06:32:29;7.60;59.20
27492;DHT22;14927;51.210;6.838;2023-02-15T06:35:14;7.60;59.20
27492;DHT22;14927;51.210;6.838;2023-02-15T06:37:59;7.60;59.30
27492;DHT22;14927;51.210;6.838;2023-02-15T06:40:47;7.70;59.40
27492;DHT22;14927;51.210;6.838;2023-02-15T06:43:31;7.60;59.30
27492;DHT22;14927;51.210;6.838;2023-02-15T06:46:16;7.60;59.30
27492;DHT22;14927;51.210;6.838;2023-02-15T06:49:01;7.60;59.40
27492;DHT22;14927;51.210;6.838;2023-02-15T06:51:45;7.60;59.30
27492;DHT22;14927;51.210;6.838;2023-02-15T06:54:30;7.60;59.30
27492;DHT22;14927;51.210;6.838;2023-02-15T06:57:15;7.60;59.30
27492;DHT22;14927;51.210;6.838;2023-02-15T06:59:59;7.60;59.30
27492;DHT22;14927;51.210;6.838;2023-02-15T07:02:44;7.60;59.30
27492;DHT22;14927;51.210;6.838;2023-02-15T07:05:32;7.60;59.30
27492;DHT22;14927;51.210;6.838;2023-02-15T07:08:18;7.60;59.30
27492;DHT22;14927;51.210;6.838;2023-02-15T07:11:05;7.70;59.40
27492;DHT22;14927;51.210;6.838;2023-02-15T07:14:09;7.70;59.30
27492;DHT22;14927;51.210;6.838;2023-02-15T07:16:55;7.70;59.30
27492;DHT22;14927;51.210;6.838;2023-02-15T07:19:39;7.70;59.30
27492;DHT22;14927;51.210;6.838;2023-02-15T07:22:24;7.60;59.20
27492;DHT22;14927;51.210;6.838;2023-02-15T07:25:10;7.70;59.30
27492;DHT22;14927;51.210;6.838;2023-02-15T07:28:03;7.70;59.30
27492;DHT22;14927;51.210;6.838;2023-02-15T07:30:48;7.70;59.20
27492;DHT22;14927;51.210;6.838;2023-02-15T07:33:33;7.80;59.30
27492;DHT22;14927;51.210;6.838;2023-02-15T07:36:18;7.70;59.30
27492;DHT22;14927;51.210;6.838;2023-02-15T07:39:03;7.70;59.30
27492;DHT22;14927;51.210;6.838;2023-02-15T07:41:47;7.70;59.30
27492;DHT22;14927;51.210;6.838;2023-02-15T07:44:32;7.70;59.30
27492;DHT22;14927;51.210;6.838;2023-02-15T07:47:17;7.70;59.30
27492;DHT22;14927;51.210;6.838;2023-02-15T07:50:01;7.80;59.40
27492;DHT22;14927;51.210;6.838;2023-02-15T07:52:46;7.90;59.40
27492;DHT22;14927;51.210;6.838;2023-02-15T07:55:31;7.80;59.30
27492;DHT22;14927;51.210;6.838;2023-02-15T07:58:15;7.80;59.40
27492;DHT22;14927;51.210;6.838;2023-02-15T08:01:00;7.90;59.40
27492;DHT22;14927;51.210;6.838;2023-02-15T08:03:48;7.90;59.40
27492;DHT22;14927;51.210;6.838;2023-02-15T08:06:35;7.90;59.30
27492;DHT22;14927;51.210;6.838;2023-02-15T08:09:20;7.90;59.30
27492;DHT22;14927;51.210;6.838;2023-02-15T08:12:06;8.00;59.30
27492;DHT22;14927;51.210;6.838;2023-02-15T08:14:50;8.00;59.40
27492;DHT22;14927;51.210;6.838;2023-02-15T08:17:36;8.10;59.40
27492;DHT22;14927;51.210;6.838;2023-02-15T08:20:21;8.20;59.30
27492;DHT22;14927;51.210;6.838;2023-02-15T08:23:05;8.10;59.10
27492;DHT22;14927;51.210;6.838;2023-02-15T08:25:50;8.20;59.10
27492;DHT22;14927;51.210;6.838;2023-02-15T08:28:35;8.20;58.90
27492;DHT22;14927;51.210;6.838;2023-02-15T08:31:20;8.30;58.90
27492;DHT22;14927;51.210;6.838;2023-02-15T08:34:05;8.30;58.70
27492;DHT22;14927;51.210;6.838;2023-02-15T08:36:50;8.40;58.60
27492;DHT22;14927;51.210;6.838;2023-02-15T08:39:35;8.40;58.50
27492;DHT22;14927;51.210;6.838;2023-02-15T08:42:20;8.40;58.40
27492;DHT22;14927;51.210;6.838;2023-02-15T08:45:05;8.50;58.30
27492;DHT22;14927;51.210;6.838;2023-02-15T08:47:49;8.60;58.30
27492;DHT22;14927;51.210;6.838;2023-02-15T08:50:34;8.60;58.20
27492;DHT22;14927;51.210;6.838;2023-02-15T08:53:19;8.80;58.10
27492;DHT22;14927;51.210;6.838;2023-02-15T08:56:06;8.70;57.90
27492;DHT22;14927;51.210;6.838;2023-02-15T08:58:55;8.70;57.70
27492;DHT22;14927;51.210;6.838;2023-02-15T09:01:40;8.80;57.60
27492;DHT22;14927;51.210;6.838;2023-02-15T09:04:24;8.90;57.50
27492;DHT22;14927;51.210;6.838;2023-02-15T09:07:09;9.00;57.40
27492;DHT22;14927;51.210;6.838;2023-02-15T09:09:54;9.00;57.20
27492;DHT22;14927;51.210;6.838;2023-02-15T09:12:38;9.00;57.00
27492;DHT22;14927;51.210;6.838;2023-02-15T09:15:23;9.00;56.80
27492;DHT22;14927;51.210;6.838;2023-02-15T09:18:08;9.30;56.90
27492;DHT22;14927;51.210;6.838;2023-02-15T09:20:52;9.10;56.80
27492;DHT22;14927;51.210;6.838;2023-02-15T09:23:44;9.30;56.80
27492;DHT22;14927;51.210;6.838;2023-02-15T09:26:32;9.20;56.60
27492;DHT22;14927;51.210;6.838;2023-02-15T09:29:18;9.20;56.40
27492;DHT22;14927;51.210;6.838;2023-02-15T09:32:04;9.30;56.40
27492;DHT22;14927;51.210;6.838;2023-02-15T09:34:49;9.30;56.30
27492;DHT22;14927;51.210;6.838;2023-02-15T09:37:33;9.40;56.30
27492;DHT22;14927;51.210;6.838;2023-02-15T09:40:18;9.60;56.30
27492;DHT22;14927;51.210;6.838;2023-02-15T09:43:14;9.50;56.10
27492;DHT22;14927;51.210;6.838;2023-02-15T09:56:38;9.70;55.50
27492;DHT22;14927;51.210;6.838;2023-02-15T10:06:15;9.90;55.30
27492;DHT22;14927;51.210;6.838;2023-02-15T10:15:50;10.10;54.90
27492;DHT22;14927;51.210;6.838;2023-02-15T10:19:15;10.10;54.90
27492;DHT22;14927;51.210;6.838;2023-02-15T10:22:34;10.20;54.80
27492;DHT22;14927;51.210;6.838;2023-02-15T10:29:06;10.40;54.60
27492;DHT22;14927;51.210;6.838;2023-02-15T10:32:17;10.50;54.40
27492;DHT22;14927;51.210;6.838;2023-02-15T10:39:16;10.60;53.80
27492;DHT22;14927;51.210;6.838;2023-02-15T10:42:02;10.70;53.90
27492;DHT22;14927;51.210;6.838;2023-02-15T10:48:52;10.90;53.50
27492;DHT22;14927;51.210;6.838;2023-02-15T10:55:40;11.10;53.50
27492;DHT22;14927;51.210;6.838;2023-02-15T11:02:39;11.30;53.00
27492;DHT22;14927;51.210;6.838;2023-02-15T11:08:23;11.80;53.10
27492;DHT22;14927;51.210;6.838;2023-02-15T11:11:12;11.60;52.80
27492;DHT22;14927;51.210;6.838;2023-02-15T11:14:03;11.80;52.60
27492;DHT22;14927;51.210;6.838;2023-02-15T11:17:17;11.80;52.30
27492;DHT22;14927;51.210;6.838;2023-02-15T11:23:36;12.10;51.50
27492;DHT22;14927;51.210;6.838;2023-02-15T11:26:38;12.20;51.60
27492;DHT22;14927;51.210;6.838;2023-02-15T11:29:48;12.30;51.00
27492;DHT22;14927;51.210;6.838;2023-02-15T11:32:53;12.40;51.10
27492;DHT22;14927;51.210;6.838;2023-02-15T11:35:57;12.50;51.20
27492;DHT22;14927;51.210;6.838;2023-02-15T11:38:47;12.60;51.00
27492;DHT22;14927;51.210;6.838;2023-02-15T11:41:37;12.80;51.10
27492;DHT22;14927;51.210;6.838;2023-02-15T11:44:30;12.90;50.70
27492;DHT22;14927;51.210;6.838;2023-02-15T11:47:16;13.00;50.40
27492;DHT22;14927;51.210;6.838;2023-02-15T11:50:01;13.10;50.30
27492;DHT22;14927;51.210;6.838;2023-02-15T11:52:47;13.30;50.10
27492;DHT22;14927;51.210;6.838;2023-02-15T11:55:32;13.40;50.00
27492;DHT22;14927;51.210;6.838;2023-02-15T11:59:21;13.50;49.90
27492;DHT22;14927;51.210;6.838;2023-02-15T12:01:47;13.70;49.30
27492;DHT22;14927;51.210;6.838;2023-02-15T12:04:40;14.00;49.70
27492;DHT22;14927;51.210;6.838;2023-02-15T12:07:29;14.10;48.90
27492;DHT22;14927;51.210;6.838;2023-02-15T12:10:24;14.30;49.10
27492;DHT22;14927;51.210;6.838;2023-02-15T12:13:16;14.50;48.30
27492;DHT22;14927;51.210;6.838;2023-02-15T12:16:07;14.80;47.90
27492;DHT22;14927;51.210;6.838;2023-02-15T12:18:58;15.00;47.70
27492;DHT22;14927;51.210;6.838;2023-02-15T12:21:45;15.20;47.60
27492;DHT22;14927;51.210;6.838;2023-02-15T12:24:45;15.40;47.40
27492;DHT22;14927;51.210;6.838;2023-02-15T12:27:33;15.60;46.40
27492;DHT22;14927;51.210;6.838;2023-02-15T12:30:23;15.90;46.60
27492;DHT22;14927;51.210;6.838;2023-02-15T12:33:36;16.10;45.80
27492;DHT22;14927;51.210;6.838;2023-02-15T12:36:29;16.40;44.40
27492;DHT22;14927;51.210;6.838;2023-02-15T12:39:19;16.70;45.20
27492;DHT22;14927;51.210;6.838;2023-02-15T12:42:16;16.90;44.90
27492;DHT22;14927;51.210;6.838;2023-02-15T12:51:07;17.80;43.10
27492;DHT22;14927;51.210;6.838;2023-02-15T12:53:53;18.10;42.10
27492;DHT22;14927;51.210;6.838;2023-02-15T12:56:37;18.40;42.40
27492;DHT22;14927;51.210;6.838;2023-02-15T12:59:22;18.70;42.00
27492;DHT22;14927;51.210;6.838;2023-02-15T13:05:38;19.20;39.90
27492;DHT22;14927;51.210;6.838;2023-02-15T13:08:34;19.50;40.00
27492;DHT22;14927;51.210;6.838;2023-02-15T13:11:29;19.80;39.30
27492;DHT22;14927;51.210;6.838;2023-02-15T13:14:31;20.10;39.20
27492;DHT22;14927;51.210;6.838;2023-02-15T13:17:19;20.50;38.10
27492;DHT22;14927;51.210;6.838;2023-02-15T13:20:28;20.70;38.70
27492;DHT22;14927;51.210;6.838;2023-02-15T13:23:31;21.10;38.30
27492;DHT22;14927;51.210;6.838;2023-02-15T13:26:20;21.50;36.10
27492;DHT22;14927;51.210;6.838;2023-02-15T13:49:29;23.70;31.80
27492;DHT22;14927;51.210;6.838;2023-02-15T13:59:17;24.70;31.50
27492;DHT22;14927;51.210;6.838;2023-02-15T14:05:51;25.20;29.70
27492;DHT22;14927;51.210;6.838;2023-02-15T14:08:54;25.50;29.40
27492;DHT22;14927;51.210;6.838;2023-02-15T14:11:55;25.70;28.80
27492;DHT22;14927;51.210;6.838;2023-02-15T14:15:44;25.80;28.60
27492;DHT22;14927;51.210;6.838;2023-02-15T14:22:48;25.60;27.90
27492;DHT22;14927;51.210;6.838;2023-02-15T14:25:59;25.60;28.80
27492;DHT22;14927;51.210;6.838;2023-02-15T14:32:37;25.60;28.40
27492;DHT22;14927;51.210;6.838;2023-02-15T14:35:27;25.50;28.10
27492;DHT22;14927;51.210;6.838;2023-02-15T14:41:53;25.10;27.70
27492;DHT22;14927;51.210;6.838;2023-02-15T14:44:48;24.80;28.00
27492;DHT22;14927;51.210;6.838;2023-02-15T14:48:15;24.60;28.20
27492;DHT22;14927;51.210;6.838;2023-02-15T14:57:22;23.80;29.00
27492;DHT22;14927;51.210;6.838;2023-02-15T15:00:33;23.50;29.10
27492;DHT22;14927;51.210;6.838;2023-02-15T15:03:24;23.40;28.90
27492;DHT22;14927;51.210;6.838;2023-02-15T15:06:30;23.20;29.20
27492;DHT22;14927;51.210;6.838;2023-02-15T15:09:27;23.00;29.10
27492;DHT22;14927;51.210;6.838;2023-02-15T15:15:54;22.60;29.60
27492;DHT22;14927;51.210;6.838;2023-02-15T15:18:48;22.50;30.00
27492;DHT22;14927;51.210;6.838;2023-02-15T15:22:05;22.30;30.30
27492;DHT22;14927;51.210;6.838;2023-02-15T15:25:00;21.90;30.30
27492;DHT22;14927;51.210;6.838;2023-02-15T15:27:52;22.00;30.80
27492;DHT22;14927;51.210;6.838;2023-02-15T15:49:10;21.00;32.30
27492;DHT22;14927;51.210;6.838;2023-02-15T15:52:08;20.80;32.60
27492;DHT22;14927;51.210;6.838;2023-02-15T15:55:13;20.70;33.00
27492;DHT22;14927;51.210;6.838;2023-02-15T15:58:04;20.40;33.10
27492;DHT22;14927;51.210;6.838;2023-02-15T16:00:51;20.40;33.50
27492;DHT22;14927;51.210;6.838;2023-02-15T16:03:59;20.30;34.20
27492;DHT22;14927;51.210;6.838;2023-02-15T16:06:44;20.20;34.00
27492;DHT22;14927;51.210;6.838;2023-02-15T16:09:29;20.10;34.20
27492;DHT22;14927;51.210;6.838;2023-02-15T16:12:15;19.90;34.30
27492;DHT22;14927;51.210;6.838;2023-02-15T16:15:11;19.80;34.50
27492;DHT22;14927;51.210;6.838;2023-02-15T16:17:59;19.70;34.70
27492;DHT22;14927;51.210;6.838;2023-02-15T16:20:59;19.60;35.00
27492;DHT22;14927;51.210;6.838;2023-02-15T16:27:44;19.40;35.40
27492;DHT22;14927;51.210;6.838;2023-02-15T16:30:35;19.20;35.50
27492;DHT22;14927;51.210;6.838;2023-02-15T16:33:20;19.10;35.70
27492;DHT22;14927;51.210;6.838;2023-02-15T16:36:09;19.00;35.80
27492;DHT22;14927;51.210;6.838;2023-02-15T16:39:18;18.90;36.00
27492;DHT22;14927;51.210;6.838;2023-02-15T16:42:04;18.80;36.30
27492;DHT22;14927;51.210;6.838;2023-02-15T16:45:03;18.70;36.50
27492;DHT22;14927;51.210;6.838;2023-02-15T16:48:01;18.50;36.70
27492;DHT22;14927;51.210;6.838;2023-02-15T16:50:52;18.40;36.90
27492;DHT22;14927;51.210;6.838;2023-02-15T16:53:38;18.30;37.10
27492;DHT22;14927;51.210;6.838;2023-02-15T16:56:30;18.20;37.30
27492;DHT22;14927;51.210;6.838;2023-02-15T16:59:33;18.10;37.60
27492;DHT22;14927;51.210;6.838;2023-02-15T17:02:24;18.00;37.90
27492;DHT22;14927;51.210;6.838;2023-02-15T17:08:15;17.90;38.90
27492;DHT22;14927;51.210;6.838;2023-02-15T17:11:21;17.80;38.60
27492;DHT22;14927;51.210;6.838;2023-02-15T17:16:54;17.60;38.80
27492;DHT22;14927;51.210;6.838;2023-02-15T17:19:53;17.50;39.10
27492;DHT22;14927;51.210;6.838;2023-02-15T17:22:39;17.40;39.30
27492;DHT22;14927;51.210;6.838;2023-02-15T17:25:33;17.40;39.50
27492;DHT22;14927;51.210;6.838;2023-02-15T17:28:24;17.30;39.60
27492;DHT22;14927;51.210;6.838;2023-02-15T17:31:14;17.20;39.60
27492;DHT22;14927;51.210;6.838;2023-02-15T17:34:02;17.10;39.70
27492;DHT22;14927;51.210;6.838;2023-02-15T17:36:57;17.10;39.90
27492;DHT22;14927;51.210;6.838;2023-02-15T17:39:43;17.00;40.10
27492;DHT22;14927;51.210;6.838;2023-02-15T17:42:27;16.90;40.00
27492;DHT22;14927;51.210;6.838;2023-02-15T17:45:12;16.80;40.20
27492;DHT22;14927;51.210;6.838;2023-02-15T17:47:57;16.80;40.40
27492;DHT22;14927;51.210;6.838;2023-02-15T17:50:42;16.70;40.60
27492;DHT22;14927;51.210;6.838;2023-02-15T17:53:27;16.60;40.80
27492;DHT22;14927;51.210;6.838;2023-02-15T17:56:12;16.60;41.00
27492;DHT22;14927;51.210;6.838;2023-02-15T17:58:57;16.50;41.10
27492;DHT22;14927;51.210;6.838;2023-02-15T18:01:47;16.50;41.30
27492;DHT22;14927;51.210;6.838;2023-02-15T18:04:51;16.40;41.50
27492;DHT22;14927;51.210;6.838;2023-02-15T18:07:54;16.40;41.50
27492;DHT22;14927;51.210;6.838;2023-02-15T18:10:59;16.30;41.60
27492;DHT22;14927;51.210;6.838;2023-02-15T18:14:08;16.20;41.80
27492;DHT22;14927;51.210;6.838;2023-02-15T18:16:54;16.20;42.00
27492;DHT22;14927;51.210;6.838;2023-02-15T18:19:40;16.10;42.10
27492;DHT22;14927;51.210;6.838;2023-02-15T18:22:27;16.10;43.00
27492;DHT22;14927;51.210;6.838;2023-02-15T18:25:14;16.00;42.40
27492;DHT22;14927;51.210;6.838;2023-02-15T18:28:00;15.90;42.60
27492;DHT22;14927;51.210;6.838;2023-02-15T18:30:45;15.90;42.70
27492;DHT22;14927;51.210;6.838;2023-02-15T18:33:36;15.90;42.80
27492;DHT22;14927;51.210;6.838;2023-02-15T18:36:32;15.80;43.00
27492;DHT22;14927;51.210;6.838;2023-02-15T18:39:40;15.80;43.10
27492;DHT22;14927;51.210;6.838;2023-02-15T18:42:31;15.70;43.20
27492;DHT22;14927;51.210;6.838;2023-02-15T18:45:23;15.70;43.20
27492;DHT22;14927;51.210;6.838;2023-02-15T18:48:11;15.60;43.40
27492;DHT22;14927;51.210;6.838;2023-02-15T18:50:57;15.60;43.50
27492;DHT22;14927;51.210;6.838;2023-02-15T18:53:42;15.50;43.50
27492;DHT22;14927;51.210;6.838;2023-02-15T18:56:26;15.50;43.70
27492;DHT22;14927;51.210;6.838;2023-02-15T18:59:15;15.40;43.80
27492;DHT22;14927;51.210;6.838;2023-02-15T19:02:00;15.40;44.00
27492;DHT22;14927;51.210;6.838;2023-02-15T19:04:45;15.30;44.00
27492;DHT22;14927;51.210;6.838;2023-02-15T19:07:31;15.30;44.20
27492;DHT22;14927;51.210;6.838;2023-02-15T19:10:21;15.20;44.30
27492;DHT22;14927;51.210;6.838;2023-02-15T19:13:12;15.20;44.40
27492;DHT22;14927;51.210;6.838;2023-02-15T19:15:56;15.10;44.60
27492;DHT22;14927;51.210;6.838;2023-02-15T19:18:43;15.10;44.70
27492;DHT22;14927;51.210;6.838;2023-02-15T19:21:29;15.10;44.80
27492;DHT22;14927;51.210;6.838;2023-02-15T19:24:19;15.00;45.00
27492;DHT22;14927;51.210;6.838;2023-02-15T19:27:08;14.90;45.10
27492;DHT22;14927;51.210;6.838;2023-02-15T19:30:40;14.90;45.10
27492;DHT22;14927;51.210;6.838;2023-02-15T19:33:19;14.80;45.20
27492;DHT22;14927;51.210;6.838;2023-02-15T19:36:05;14.80;45.30
27492;DHT22;14927;51.210;6.838;2023-02-15T19:39:01;14.70;45.40
27492;DHT22;14927;51.210;6.838;2023-02-15T19:41:47;14.70;45.50
27492;DHT22;14927;51.210;6.838;2023-02-15T19:44:31;14.60;45.60
27492;DHT22;14927;51.210;6.838;2023-02-15T19:47:16;14.60;45.70
27492;DHT22;14927;51.210;6.838;2023-02-15T19:50:01;14.60;45.90
27492;DHT22;14927;51.210;6.838;2023-02-15T19:52:47;14.50;46.00
27492;DHT22;14927;51.210;6.838;2023-02-15T19:55:33;14.50;46.10
27492;DHT22;14927;51.210;6.838;2023-02-15T19:58:19;14.40;46.10
27492;DHT22;14927;51.210;6.838;2023-02-15T20:01:05;14.40;46.20
27492;DHT22;14927;51.210;6.838;2023-02-15T20:03:50;14.30;46.30
27492;DHT22;14927;51.210;6.838;2023-02-15T20:06:35;14.30;46.40
27492;DHT22;14927;51.210;6.838;2023-02-15T20:09:23;14.30;46.50
27492;DHT22;14927;51.210;6.838;2023-02-15T20:12:23;14.20;46.60
27492;DHT22;14927;51.210;6.838;2023-02-15T20:15:19;14.10;46.90
27492;DHT22;14927;51.210;6.838;2023-02-15T20:28:40;13.90;47.10
27492;DHT22;14927;51.210;6.838;2023-02-15T20:31:25;13.90;47.30
27492;DHT22;14927;51.210;6.838;2023-02-15T20:34:15;13.80;47.40
27492;DHT22;14927;51.210;6.838;2023-02-15T20:37:00;13.80;47.50
27492;DHT22;14927;51.210;6.838;2023-02-15T20:39:44;13.80;47.60
27492;DHT22;14927;51.210;6.838;2023-02-15T20:42:29;13.70;48.30
27492;DHT22;14927;51.210;6.838;2023-02-15T20:45:20;13.70;47.70
27492;DHT22;14927;51.210;6.838;2023-02-15T20:48:07;13.60;47.90
27492;DHT22;14927;51.210;6.838;2023-02-15T20:50:53;13.60;48.00
27492;DHT22;14927;51.210;6.838;2023-02-15T20:53:38;13.60;48.00
27492;DHT22;14927;51.210;6.838;2023-02-15T20:56:24;13.50;48.00
27492;DHT22;14927;51.210;6.838;2023-02-15T20:59:25;13.50;48.10
27492;DHT22;14927;51.210;6.838;2023-02-15T21:02:17;13.50;48.40
27492;DHT22;14927;51.210;6.838;2023-02-15T21:05:21;13.50;48.40
27492;DHT22;14927;51.210;6.838;2023-02-15T21:08:16;13.40;48.60
27492;DHT22;14927;51.210;6.838;2023-02-15T21:11:02;13.40;48.50